sensor_id;sensor_type;location;lat;lon;timestamp;P1;durP1;ratioP1;P2;durP2;ratioP2
18140;SDS011;9196;49.194;12.526;2023-09-30T00:34:27;23.03;;;11.30;;
18140;SDS011;9196;49.194;12.526;2023-09-30T00:36:55;28.87;;;12.00;;
18140;SDS011;9196;49.194;12.526;2023-09-30T00:39:21;29.60;;;12.40;;
18140;SDS011;9196;49.194;12.526;2023-09-30T00:41:51;34.80;;;11.93;;
18140;SDS011;9196;49.194;12.526;2023-09-30T00:44:19;27.03;;;12.20;;
18140;SDS011;9196;49.194;12.526;2023-09-30T00:46:46;29.30;;;13.47;;
18140;SDS011;9196;49.194;12.526;2023-09-30T00:49:13;30.10;;;13.47;;
18140;SDS011;9196;49.194;12.526;2023-09-30T00:51:44;25.03;;;11.77;;
18140;SDS011;9196;49.194;12.526;2023-09-30T00:54:12;31.40;;;14.67;;
18140;SDS011;9196;49.194;12.526;2023-09-30T00:56:39;37.37;;;14.30;;
18140;SDS011;9196;49.194;12.526;2023-09-30T00:59:10;32.17;;;13.53;;
18140;SDS011;9196;49.194;12.526;2023-09-30T01:01:37;25.77;;;11.53;;
18140;SDS011;9196;49.194;12.526;2023-09-30T01:04:04;33.17;;;13.40;;
18140;SDS011;9196;49.194;12.526;2023-09-30T01:06:32;28.90;;;11.97;;
18140;SDS011;9196;49.194;12.526;2023-09-30T01:09:00;30.90;;;12.90;;
18140;SDS011;9196;49.194;12.526;2023-09-30T01:11:28;25.77;;;11.20;;
18140;SDS011;9196;49.194;12.526;2023-09-30T01:13:55;33.10;;;13.80;;
18140;SDS011;9196;49.194;12.526;2023-09-30T01:16:22;28.10;;;12.40;;
18140;SDS011;9196;49.194;12.526;2023-09-30T01:18:49;28.50;;;12.30;;
18140;SDS011;9196;49.194;12.526;2023-09-30T01:21:16;29.27;;;12.77;;
18140;SDS011;9196;49.194;12.526;2023-09-30T01:23:46;33.20;;;13.30;;
18140;SDS011;9196;49.194;12.526;2023-09-30T01:26:13;27.40;;;11.53;;
18140;SDS011;9196;49.194;12.526;2023-09-30T01:28:40;25.83;;;11.37;;
18140;SDS011;9196;49.194;12.526;2023-09-30T01:31:06;22.00;;;10.00;;
18140;SDS011;9196;49.194;12.526;2023-09-30T01:33:33;27.30;;;11.73;;
18140;SDS011;9196;49.194;12.526;2023-09-30T01:36:00;22.90;;;10.87;;
18140;SDS011;9196;49.194;12.526;2023-09-30T01:38:27;27.47;;;10.60;;
18140;SDS011;9196;49.194;12.526;2023-09-30T01:40:55;20.20;;;9.50;;
18140;SDS011;9196;49.194;12.526;2023-09-30T01:43:22;25.83;;;10.63;;
18140;SDS011;9196;49.194;12.526;2023-09-30T01:45:49;26.17;;;11.33;;
18140;SDS011;9196;49.194;12.526;2023-09-30T01:48:16;24.43;;;9.83;;
18140;SDS011;9196;49.194;12.526;2023-09-30T01:50:43;23.57;;;9.30;;
18140;SDS011;9196;49.194;12.526;2023-09-30T01:53:10;21.90;;;9.93;;
18140;SDS011;9196;49.194;12.526;2023-09-30T01:55:36;20.90;;;8.80;;
18140;SDS011;9196;49.194;12.526;2023-09-30T01:58:05;23.77;;;9.50;;
18140;SDS011;9196;49.194;12.526;2023-09-30T02:00:32;22.60;;;8.73;;
18140;SDS011;9196;49.194;12.526;2023-09-30T02:03:00;24.03;;;10.40;;
18140;SDS011;9196;49.194;12.526;2023-09-30T02:05:27;21.90;;;8.67;;
18140;SDS011;9196;49.194;12.526;2023-09-30T02:07:53;22.53;;;9.60;;
18140;SDS011;9196;49.194;12.526;2023-09-30T02:10:21;22.80;;;8.30;;
18140;SDS011;9196;49.194;12.526;2023-09-30T02:12:48;20.80;;;9.07;;
18140;SDS011;9196;49.194;12.526;2023-09-30T02:15:16;21.07;;;8.23;;
18140;SDS011;9196;49.194;12.526;2023-09-30T02:17:43;23.33;;;8.53;;
18140;SDS011;9196;49.194;12.526;2023-09-30T02:20:14;23.20;;;8.87;;
18140;SDS011;9196;49.194;12.526;2023-09-30T02:22:44;29.13;;;10.40;;
18140;SDS011;9196;49.194;12.526;2023-09-30T02:25:11;24.87;;;9.13;;
18140;SDS011;9196;49.194;12.526;2023-09-30T02:27:39;21.40;;;9.07;;
18140;SDS011;9196;49.194;12.526;2023-09-30T02:30:07;23.40;;;9.13;;
18140;SDS011;9196;49.194;12.526;2023-09-30T02:32:37;22.07;;;9.27;;
18140;SDS011;9196;49.194;12.526;2023-09-30T02:35:05;22.33;;;9.17;;
18140;SDS011;9196;49.194;12.526;2023-09-30T02:37:34;22.30;;;9.53;;
18140;SDS011;9196;49.194;12.526;2023-09-30T02:40:02;20.40;;;8.67;;
18140;SDS011;9196;49.194;12.526;2023-09-30T02:42:30;25.30;;;8.73;;
18140;SDS011;9196;49.194;12.526;2023-09-30T02:44:59;17.90;;;7.30;;
18140;SDS011;9196;49.194;12.526;2023-09-30T02:47:26;17.00;;;8.40;;
18140;SDS011;9196;49.194;12.526;2023-09-30T02:49:56;17.10;;;7.90;;
18140;SDS011;9196;49.194;12.526;2023-09-30T02:52:23;15.37;;;8.07;;
18140;SDS011;9196;49.194;12.526;2023-09-30T02:54:50;16.10;;;8.03;;
18140;SDS011;9196;49.194;12.526;2023-09-30T02:57:17;18.77;;;8.50;;
18140;SDS011;9196;49.194;12.526;2023-09-30T02:59:44;16.67;;;7.70;;
18140;SDS011;9196;49.194;12.526;2023-09-30T03:02:11;13.67;;;7.33;;
18140;SDS011;9196;49.194;12.526;2023-09-30T03:04:38;21.70;;;7.90;;
18140;SDS011;9196;49.194;12.526;2023-09-30T03:07:06;17.87;;;7.40;;
18140;SDS011;9196;49.194;12.526;2023-09-30T03:09:33;15.30;;;7.13;;
18140;SDS011;9196;49.194;12.526;2023-09-30T03:12:00;15.63;;;7.00;;
18140;SDS011;9196;49.194;12.526;2023-09-30T03:14:29;14.33;;;6.83;;
18140;SDS011;9196;49.194;12.526;2023-09-30T03:16:57;22.63;;;9.00;;
18140;SDS011;9196;49.194;12.526;2023-09-30T03:19:23;20.40;;;6.60;;
18140;SDS011;9196;49.194;12.526;2023-09-30T03:21:50;17.27;;;7.40;;
18140;SDS011;9196;49.194;12.526;2023-09-30T03:24:18;12.70;;;6.80;;
18140;SDS011;9196;49.194;12.526;2023-09-30T03:26:46;13.83;;;6.27;;
18140;SDS011;9196;49.194;12.526;2023-09-30T03:29:13;8.03;;;4.73;;
18140;SDS011;9196;49.194;12.526;2023-09-30T03:31:39;14.90;;;7.13;;
18140;SDS011;9196;49.194;12.526;2023-09-30T03:34:06;11.50;;;6.07;;
18140;SDS011;9196;49.194;12.526;2023-09-30T03:36:33;13.17;;;5.97;;
18140;SDS011;9196;49.194;12.526;2023-09-30T03:39:00;12.63;;;6.23;;
18140;SDS011;9196;49.194;12.526;2023-09-30T03:41:33;13.80;;;6.20;;
18140;SDS011;9196;49.194;12.526;2023-09-30T03:44:02;13.73;;;6.67;;
18140;SDS011;9196;49.194;12.526;2023-09-30T03:46:29;11.17;;;5.53;;
18140;SDS011;9196;49.194;12.526;2023-09-30T03:48:56;13.50;;;6.40;;
18140;SDS011;9196;49.194;12.526;2023-09-30T03:51:24;14.80;;;6.57;;
18140;SDS011;9196;49.194;12.526;2023-09-30T03:53:51;14.93;;;6.20;;
18140;SDS011;9196;49.194;12.526;2023-09-30T03:56:18;12.43;;;5.63;;
18140;SDS011;9196;49.194;12.526;2023-09-30T03:58:48;12.20;;;6.27;;
18140;SDS011;9196;49.194;12.526;2023-09-30T04:01:16;11.33;;;5.63;;
18140;SDS011;9196;49.194;12.526;2023-09-30T04:03:44;14.03;;;6.97;;
18140;SDS011;9196;49.194;12.526;2023-09-30T04:06:11;14.67;;;6.20;;
18140;SDS011;9196;49.194;12.526;2023-09-30T04:08:38;13.87;;;6.40;;
18140;SDS011;9196;49.194;12.526;2023-09-30T04:11:05;12.40;;;5.97;;
18140;SDS011;9196;49.194;12.526;2023-09-30T04:13:32;12.23;;;5.20;;
18140;SDS011;9196;49.194;12.526;2023-09-30T04:16:01;12.73;;;5.57;;
18140;SDS011;9196;49.194;12.526;2023-09-30T04:18:28;18.17;;;6.53;;
18140;SDS011;9196;49.194;12.526;2023-09-30T04:20:55;12.50;;;5.77;;
18140;SDS011;9196;49.194;12.526;2023-09-30T04:23:22;14.70;;;6.37;;
18140;SDS011;9196;49.194;12.526;2023-09-30T04:25:49;12.23;;;5.27;;
18140;SDS011;9196;49.194;12.526;2023-09-30T04:28:15;12.33;;;5.60;;
18140;SDS011;9196;49.194;12.526;2023-09-30T04:30:46;12.57;;;5.10;;
18140;SDS011;9196;49.194;12.526;2023-09-30T04:33:16;14.40;;;6.00;;
18140;SDS011;9196;49.194;12.526;2023-09-30T04:35:44;11.40;;;4.80;;
18140;SDS011;9196;49.194;12.526;2023-09-30T04:38:11;12.23;;;7.13;;
18140;SDS011;9196;49.194;12.526;2023-09-30T04:40:38;14.77;;;5.53;;
18140;SDS011;9196;49.194;12.526;2023-09-30T04:43:05;11.33;;;5.03;;
18140;SDS011;9196;49.194;12.526;2023-09-30T04:45:32;8.77;;;5.00;;
18140;SDS011;9196;49.194;12.526;2023-09-30T04:47:58;13.60;;;5.07;;
18140;SDS011;9196;49.194;12.526;2023-09-30T04:50:28;10.60;;;5.63;;
18140;SDS011;9196;49.194;12.526;2023-09-30T04:52:55;16.90;;;6.50;;
18140;SDS011;9196;49.194;12.526;2023-09-30T04:55:22;10.97;;;4.90;;
18140;SDS011;9196;49.194;12.526;2023-09-30T04:57:49;17.67;;;6.30;;
18140;SDS011;9196;49.194;12.526;2023-09-30T05:00:18;13.03;;;5.57;;
18140;SDS011;9196;49.194;12.526;2023-09-30T05:02:50;11.60;;;5.80;;
18140;SDS011;9196;49.194;12.526;2023-09-30T05:05:17;9.60;;;4.80;;
18140;SDS011;9196;49.194;12.526;2023-09-30T05:07:45;12.27;;;5.90;;
18140;SDS011;9196;49.194;12.526;2023-09-30T05:10:13;15.77;;;6.07;;
18140;SDS011;9196;49.194;12.526;2023-09-30T05:12:41;11.63;;;5.20;;
18140;SDS011;9196;49.194;12.526;2023-09-30T05:15:10;14.27;;;5.90;;
18140;SDS011;9196;49.194;12.526;2023-09-30T05:17:38;14.50;;;5.60;;
18140;SDS011;9196;49.194;12.526;2023-09-30T05:20:05;14.90;;;6.20;;
18140;SDS011;9196;49.194;12.526;2023-09-30T05:22:33;9.93;;;5.10;;
18140;SDS011;9196;49.194;12.526;2023-09-30T05:25:01;10.50;;;5.97;;
18140;SDS011;9196;49.194;12.526;2023-09-30T05:27:28;8.33;;;5.20;;
18140;SDS011;9196;49.194;12.526;2023-09-30T05:29:54;10.70;;;5.10;;
18140;SDS011;9196;49.194;12.526;2023-09-30T05:32:21;13.60;;;6.20;;
18140;SDS011;9196;49.194;12.526;2023-09-30T05:34:48;15.13;;;7.27;;
18140;SDS011;9196;49.194;12.526;2023-09-30T05:37:15;16.67;;;7.33;;
18140;SDS011;9196;49.194;12.526;2023-09-30T05:39:42;10.43;;;5.70;;
18140;SDS011;9196;49.194;12.526;2023-09-30T05:42:11;12.17;;;6.10;;
18140;SDS011;9196;49.194;12.526;2023-09-30T05:44:38;8.80;;;4.77;;
18140;SDS011;9196;49.194;12.526;2023-09-30T05:47:04;9.37;;;5.07;;
18140;SDS011;9196;49.194;12.526;2023-09-30T05:49:32;10.90;;;5.07;;
18140;SDS011;9196;49.194;12.526;2023-09-30T05:52:01;13.30;;;6.20;;
18140;SDS011;9196;49.194;12.526;2023-09-30T05:54:28;14.10;;;5.70;;
18140;SDS011;9196;49.194;12.526;2023-09-30T05:56:55;12.53;;;5.30;;
18140;SDS011;9196;49.194;12.526;2023-09-30T05:59:23;12.40;;;6.40;;
18140;SDS011;9196;49.194;12.526;2023-09-30T06:01:51;14.53;;;5.77;;
18140;SDS011;9196;49.194;12.526;2023-09-30T06:04:18;11.60;;;6.30;;
18140;SDS011;9196;49.194;12.526;2023-09-30T06:06:46;12.60;;;6.30;;
18140;SDS011;9196;49.194;12.526;2023-09-30T06:09:13;10.70;;;5.30;;
18140;SDS011;9196;49.194;12.526;2023-09-30T06:11:39;11.83;;;5.27;;
18140;SDS011;9196;49.194;12.526;2023-09-30T06:14:07;16.70;;;5.83;;
18140;SDS011;9196;49.194;12.526;2023-09-30T06:16:35;13.93;;;6.67;;
18140;SDS011;9196;49.194;12.526;2023-09-30T06:19:03;11.23;;;5.57;;
18140;SDS011;9196;49.194;12.526;2023-09-30T06:21:31;11.43;;;5.70;;
18140;SDS011;9196;49.194;12.526;2023-09-30T06:23:59;10.63;;;5.70;;
18140;SDS011;9196;49.194;12.526;2023-09-30T06:26:27;12.50;;;5.40;;
18140;SDS011;9196;49.194;12.526;2023-09-30T06:28:55;7.97;;;4.73;;
18140;SDS011;9196;49.194;12.526;2023-09-30T06:31:21;15.73;;;6.40;;
18140;SDS011;9196;49.194;12.526;2023-09-30T06:33:50;18.87;;;5.83;;
18140;SDS011;9196;49.194;12.526;2023-09-30T06:36:17;11.10;;;5.37;;
18140;SDS011;9196;49.194;12.526;2023-09-30T06:38:46;13.00;;;6.40;;
18140;SDS011;9196;49.194;12.526;2023-09-30T06:41:15;13.73;;;6.27;;
18140;SDS011;9196;49.194;12.526;2023-09-30T06:43:43;11.10;;;5.00;;
18140;SDS011;9196;49.194;12.526;2023-09-30T06:46:10;13.10;;;5.60;;
18140;SDS011;9196;49.194;12.526;2023-09-30T06:48:38;9.33;;;4.70;;
18140;SDS011;9196;49.194;12.526;2023-09-30T06:51:07;7.60;;;4.10;;
18140;SDS011;9196;49.194;12.526;2023-09-30T06:53:40;8.83;;;5.70;;
18140;SDS011;9196;49.194;12.526;2023-09-30T06:56:06;10.40;;;5.53;;
18140;SDS011;9196;49.194;12.526;2023-09-30T06:58:33;10.83;;;4.73;;
18140;SDS011;9196;49.194;12.526;2023-09-30T07:01:01;10.47;;;6.17;;
18140;SDS011;9196;49.194;12.526;2023-09-30T07:03:28;14.87;;;6.47;;
18140;SDS011;9196;49.194;12.526;2023-09-30T07:05:55;8.83;;;4.27;;
18140;SDS011;9196;49.194;12.526;2023-09-30T07:08:26;9.33;;;4.90;;
18140;SDS011;9196;49.194;12.526;2023-09-30T07:10:54;12.23;;;5.60;;
18140;SDS011;9196;49.194;12.526;2023-09-30T07:13:21;8.60;;;4.40;;
18140;SDS011;9196;49.194;12.526;2023-09-30T07:15:48;9.10;;;4.60;;
18140;SDS011;9196;49.194;12.526;2023-09-30T07:18:15;10.33;;;5.13;;
18140;SDS011;9196;49.194;12.526;2023-09-30T07:20:42;7.57;;;3.97;;
18140;SDS011;9196;49.194;12.526;2023-09-30T07:23:09;14.10;;;5.37;;
18140;SDS011;9196;49.194;12.526;2023-09-30T07:25:39;11.80;;;4.73;;
18140;SDS011;9196;49.194;12.526;2023-09-30T07:28:06;9.13;;;4.40;;
18140;SDS011;9196;49.194;12.526;2023-09-30T07:30:36;8.27;;;4.23;;
18140;SDS011;9196;49.194;12.526;2023-09-30T07:33:03;12.77;;;5.07;;
18140;SDS011;9196;49.194;12.526;2023-09-30T07:35:30;9.07;;;4.40;;
18140;SDS011;9196;49.194;12.526;2023-09-30T07:37:58;10.10;;;5.30;;
18140;SDS011;9196;49.194;12.526;2023-09-30T07:40:25;10.87;;;4.80;;
18140;SDS011;9196;49.194;12.526;2023-09-30T07:42:54;10.07;;;4.93;;
18140;SDS011;9196;49.194;12.526;2023-09-30T07:45:21;26.60;;;5.30;;
18140;SDS011;9196;49.194;12.526;2023-09-30T07:47:48;9.93;;;4.73;;
18140;SDS011;9196;49.194;12.526;2023-09-30T07:50:16;8.27;;;4.50;;
18140;SDS011;9196;49.194;12.526;2023-09-30T07:52:43;4.80;;;3.27;;
18140;SDS011;9196;49.194;12.526;2023-09-30T07:55:11;9.80;;;4.67;;
18140;SDS011;9196;49.194;12.526;2023-09-30T07:57:39;4.90;;;3.47;;
18140;SDS011;9196;49.194;12.526;2023-09-30T08:00:09;8.20;;;3.83;;
18140;SDS011;9196;49.194;12.526;2023-09-30T08:02:40;8.23;;;3.73;;
18140;SDS011;9196;49.194;12.526;2023-09-30T08:05:07;3.87;;;2.87;;
18140;SDS011;9196;49.194;12.526;2023-09-30T08:07:35;5.03;;;2.73;;
18140;SDS011;9196;49.194;12.526;2023-09-30T08:10:02;6.60;;;3.17;;
18140;SDS011;9196;49.194;12.526;2023-09-30T08:12:31;4.40;;;2.87;;
18140;SDS011;9196;49.194;12.526;2023-09-30T08:14:58;7.73;;;3.47;;
18140;SDS011;9196;49.194;12.526;2023-09-30T08:17:27;7.80;;;3.20;;
18140;SDS011;9196;49.194;12.526;2023-09-30T08:19:53;6.30;;;3.77;;
18140;SDS011;9196;49.194;12.526;2023-09-30T08:22:20;6.90;;;3.03;;
18140;SDS011;9196;49.194;12.526;2023-09-30T08:24:51;8.33;;;3.67;;
18140;SDS011;9196;49.194;12.526;2023-09-30T08:27:17;4.93;;;3.47;;
18140;SDS011;9196;49.194;12.526;2023-09-30T08:29:44;7.57;;;3.93;;
18140;SDS011;9196;49.194;12.526;2023-09-30T08:32:11;5.00;;;3.20;;
18140;SDS011;9196;49.194;12.526;2023-09-30T08:34:39;4.47;;;2.57;;
18140;SDS011;9196;49.194;12.526;2023-09-30T08:37:07;7.93;;;4.13;;
18140;SDS011;9196;49.194;12.526;2023-09-30T08:39:37;7.80;;;3.60;;
18140;SDS011;9196;49.194;12.526;2023-09-30T08:42:05;5.57;;;2.77;;
18140;SDS011;9196;49.194;12.526;2023-09-30T08:44:36;3.90;;;2.50;;
18140;SDS011;9196;49.194;12.526;2023-09-30T08:47:05;6.23;;;3.10;;
18140;SDS011;9196;49.194;12.526;2023-09-30T08:49:33;7.37;;;3.73;;
18140;SDS011;9196;49.194;12.526;2023-09-30T08:52:02;6.53;;;3.30;;
18140;SDS011;9196;49.194;12.526;2023-09-30T08:54:31;5.67;;;3.50;;
18140;SDS011;9196;49.194;12.526;2023-09-30T08:56:58;6.47;;;3.53;;
18140;SDS011;9196;49.194;12.526;2023-09-30T08:59:28;5.97;;;3.63;;
18140;SDS011;9196;49.194;12.526;2023-09-30T09:01:55;8.33;;;3.57;;
18140;SDS011;9196;49.194;12.526;2023-09-30T09:04:23;7.40;;;3.43;;
18140;SDS011;9196;49.194;12.526;2023-09-30T09:06:51;5.63;;;3.60;;
18140;SDS011;9196;49.194;12.526;2023-09-30T09:09:21;7.27;;;3.70;;
18140;SDS011;9196;49.194;12.526;2023-09-30T09:11:49;7.97;;;3.30;;
18140;SDS011;9196;49.194;12.526;2023-09-30T09:14:16;9.33;;;3.70;;
18140;SDS011;9196;49.194;12.526;2023-09-30T09:16:52;6.80;;;4.63;;
18140;SDS011;9196;49.194;12.526;2023-09-30T09:19:20;8.50;;;5.37;;
18140;SDS011;9196;49.194;12.526;2023-09-30T09:21:53;6.93;;;4.07;;
18140;SDS011;9196;49.194;12.526;2023-09-30T09:24:30;5.33;;;3.80;;
18140;SDS011;9196;49.194;12.526;2023-09-30T09:27:05;9.60;;;5.30;;
18140;SDS011;9196;49.194;12.526;2023-09-30T09:29:35;4.90;;;3.73;;
18140;SDS011;9196;49.194;12.526;2023-09-30T09:32:06;6.80;;;4.00;;
18140;SDS011;9196;49.194;12.526;2023-09-30T09:34:39;6.43;;;4.07;;
18140;SDS011;9196;49.194;12.526;2023-09-30T09:37:13;8.83;;;3.60;;
18140;SDS011;9196;49.194;12.526;2023-09-30T09:39:49;5.47;;;3.80;;
18140;SDS011;9196;49.194;12.526;2023-09-30T09:42:24;5.20;;;3.90;;
18140;SDS011;9196;49.194;12.526;2023-09-30T09:44:54;5.73;;;3.57;;
18140;SDS011;9196;49.194;12.526;2023-09-30T09:47:21;5.63;;;2.50;;
18140;SDS011;9196;49.194;12.526;2023-09-30T09:49:50;3.30;;;2.17;;
18140;SDS011;9196;49.194;12.526;2023-09-30T09:52:18;3.53;;;2.60;;
18140;SDS011;9196;49.194;12.526;2023-09-30T09:54:45;1.23;;;1.23;;
18140;SDS011;9196;49.194;12.526;2023-09-30T09:57:14;1.47;;;1.37;;
18140;SDS011;9196;49.194;12.526;2023-09-30T09:59:43;1.43;;;1.10;;
18140;SDS011;9196;49.194;12.526;2023-09-30T10:02:12;1.33;;;1.10;;
18140;SDS011;9196;49.194;12.526;2023-09-30T10:04:40;2.63;;;1.13;;
18140;SDS011;9196;49.194;12.526;2023-09-30T10:07:09;0.90;;;0.90;;
18140;SDS011;9196;49.194;12.526;2023-09-30T10:09:39;0.80;;;0.80;;
18140;SDS011;9196;49.194;12.526;2023-09-30T10:12:11;2.30;;;0.90;;
18140;SDS011;9196;49.194;12.526;2023-09-30T10:14:41;0.83;;;0.80;;
18140;SDS011;9196;49.194;12.526;2023-09-30T10:17:09;1.23;;;0.80;;
18140;SDS011;9196;49.194;12.526;2023-09-30T10:19:36;5.57;;;0.93;;
18140;SDS011;9196;49.194;12.526;2023-09-30T10:22:29;0.80;;;0.80;;
18140;SDS011;9196;49.194;12.526;2023-09-30T10:24:56;0.70;;;0.70;;
18140;SDS011;9196;49.194;12.526;2023-09-30T10:27:28;0.70;;;0.70;;
18140;SDS011;9196;49.194;12.526;2023-09-30T10:29:59;0.70;;;0.70;;
18140;SDS011;9196;49.194;12.526;2023-09-30T10:35:47;0.70;;;0.70;;
18140;SDS011;9196;49.194;12.526;2023-09-30T10:41:06;0.70;;;0.70;;
18140;SDS011;9196;49.194;12.526;2023-09-30T10:43:33;0.67;;;0.67;;
18140;SDS011;9196;49.194;12.526;2023-09-30T10:46:03;0.77;;;0.77;;
18140;SDS011;9196;49.194;12.526;2023-09-30T10:48:35;0.90;;;0.90;;
18140;SDS011;9196;49.194;12.526;2023-09-30T10:51:13;2.00;;;0.90;;
18140;SDS011;9196;49.194;12.526;2023-09-30T10:53:43;0.90;;;0.90;;
18140;SDS011;9196;49.194;12.526;2023-09-30T10:56:11;1.37;;;1.00;;
18140;SDS011;9196;49.194;12.526;2023-09-30T10:58:42;1.10;;;0.83;;
18140;SDS011;9196;49.194;12.526;2023-09-30T11:01:13;0.90;;;0.90;;
18140;SDS011;9196;49.194;12.526;2023-09-30T11:03:41;0.90;;;0.90;;
18140;SDS011;9196;49.194;12.526;2023-09-30T11:06:11;1.10;;;1.10;;
18140;SDS011;9196;49.194;12.526;2023-09-30T11:08:44;2.60;;;1.23;;
18140;SDS011;9196;49.194;12.526;2023-09-30T11:11:16;1.30;;;1.20;;
18140;SDS011;9196;49.194;12.526;2023-09-30T11:13:43;2.93;;;1.30;;
18140;SDS011;9196;49.194;12.526;2023-09-30T11:16:12;2.70;;;1.30;;
18140;SDS011;9196;49.194;12.526;2023-09-30T11:18:38;1.83;;;1.60;;
18140;SDS011;9196;49.194;12.526;2023-09-30T11:21:06;1.47;;;1.40;;
18140;SDS011;9196;49.194;12.526;2023-09-30T11:23:35;1.40;;;1.27;;
18140;SDS011;9196;49.194;12.526;2023-09-30T11:26:03;1.63;;;1.03;;
18140;SDS011;9196;49.194;12.526;2023-09-30T11:28:37;1.30;;;1.30;;
18140;SDS011;9196;49.194;12.526;2023-09-30T11:31:07;1.50;;;1.40;;
18140;SDS011;9196;49.194;12.526;2023-09-30T11:36:22;1.50;;;1.40;;
18140;SDS011;9196;49.194;12.526;2023-09-30T11:38:50;1.97;;;1.87;;
18140;SDS011;9196;49.194;12.526;2023-09-30T11:41:19;2.00;;;1.90;;
18140;SDS011;9196;49.194;12.526;2023-09-30T11:43:59;1.70;;;1.70;;
18140;SDS011;9196;49.194;12.526;2023-09-30T11:46:29;1.60;;;1.60;;
18140;SDS011;9196;49.194;12.526;2023-09-30T11:49:00;1.97;;;1.87;;
18140;SDS011;9196;49.194;12.526;2023-09-30T11:51:28;2.40;;;1.83;;
18140;SDS011;9196;49.194;12.526;2023-09-30T11:53:56;2.03;;;2.03;;
18140;SDS011;9196;49.194;12.526;2023-09-30T11:56:23;5.50;;;1.73;;
18140;SDS011;9196;49.194;12.526;2023-09-30T11:58:54;3.50;;;2.13;;
18140;SDS011;9196;49.194;12.526;2023-09-30T12:01:21;1.97;;;1.77;;
18140;SDS011;9196;49.194;12.526;2023-09-30T12:03:50;2.03;;;1.93;;
18140;SDS011;9196;49.194;12.526;2023-09-30T12:06:19;2.30;;;2.20;;
18140;SDS011;9196;49.194;12.526;2023-09-30T12:08:46;2.50;;;2.40;;
18140;SDS011;9196;49.194;12.526;2023-09-30T12:11:13;2.73;;;2.33;;
18140;SDS011;9196;49.194;12.526;2023-09-30T12:13:41;2.50;;;2.30;;
18140;SDS011;9196;49.194;12.526;2023-09-30T12:16:09;2.47;;;2.30;;
18140;SDS011;9196;49.194;12.526;2023-09-30T12:18:37;2.93;;;2.33;;
18140;SDS011;9196;49.194;12.526;2023-09-30T12:21:06;2.90;;;2.70;;
18140;SDS011;9196;49.194;12.526;2023-09-30T12:23:34;3.23;;;2.93;;
18140;SDS011;9196;49.194;12.526;2023-09-30T12:26:01;3.27;;;2.87;;
18140;SDS011;9196;49.194;12.526;2023-09-30T12:28:30;4.53;;;2.60;;
18140;SDS011;9196;49.194;12.526;2023-09-30T12:30:57;3.37;;;2.33;;
18140;SDS011;9196;49.194;12.526;2023-09-30T12:33:26;3.20;;;2.83;;
18140;SDS011;9196;49.194;12.526;2023-09-30T12:35:55;2.40;;;2.20;;
18140;SDS011;9196;49.194;12.526;2023-09-30T12:38:22;2.77;;;2.60;;
18140;SDS011;9196;49.194;12.526;2023-09-30T12:40:52;2.87;;;2.67;;
18140;SDS011;9196;49.194;12.526;2023-09-30T12:43:19;2.53;;;2.33;;
18140;SDS011;9196;49.194;12.526;2023-09-30T12:45:47;2.87;;;2.33;;
18140;SDS011;9196;49.194;12.526;2023-09-30T12:48:14;5.37;;;3.80;;
18140;SDS011;9196;49.194;12.526;2023-09-30T12:50:42;3.17;;;2.87;;
18140;SDS011;9196;49.194;12.526;2023-09-30T12:53:09;2.93;;;2.70;;
18140;SDS011;9196;49.194;12.526;2023-09-30T12:55:35;6.67;;;3.90;;
18140;SDS011;9196;49.194;12.526;2023-09-30T12:58:03;4.20;;;2.53;;
18140;SDS011;9196;49.194;12.526;2023-09-30T13:00:30;3.17;;;2.70;;
18140;SDS011;9196;49.194;12.526;2023-09-30T13:02:58;4.20;;;2.73;;
18140;SDS011;9196;49.194;12.526;2023-09-30T13:05:26;2.50;;;2.40;;
18140;SDS011;9196;49.194;12.526;2023-09-30T13:07:54;2.73;;;2.53;;
18140;SDS011;9196;49.194;12.526;2023-09-30T13:10:21;2.47;;;2.27;;
18140;SDS011;9196;49.194;12.526;2023-09-30T13:12:48;3.50;;;2.70;;
18140;SDS011;9196;49.194;12.526;2023-09-30T13:15:16;4.67;;;3.20;;
18140;SDS011;9196;49.194;12.526;2023-09-30T13:17:43;3.43;;;2.80;;
18140;SDS011;9196;49.194;12.526;2023-09-30T13:20:11;3.47;;;2.80;;
18140;SDS011;9196;49.194;12.526;2023-09-30T13:22:38;6.77;;;2.70;;
18140;SDS011;9196;49.194;12.526;2023-09-30T13:25:05;4.77;;;2.80;;
18140;SDS011;9196;49.194;12.526;2023-09-30T13:27:33;6.60;;;3.20;;
18140;SDS011;9196;49.194;12.526;2023-09-30T13:30:00;3.73;;;2.93;;
18140;SDS011;9196;49.194;12.526;2023-09-30T13:32:28;3.13;;;2.57;;
18140;SDS011;9196;49.194;12.526;2023-09-30T13:34:55;2.83;;;2.53;;
18140;SDS011;9196;49.194;12.526;2023-09-30T13:37:23;2.70;;;2.50;;
18140;SDS011;9196;49.194;12.526;2023-09-30T13:39:55;2.90;;;2.70;;
18140;SDS011;9196;49.194;12.526;2023-09-30T13:42:21;4.07;;;3.20;;
18140;SDS011;9196;49.194;12.526;2023-09-30T13:44:48;3.30;;;3.00;;
18140;SDS011;9196;49.194;12.526;2023-09-30T13:47:15;3.13;;;2.80;;
18140;SDS011;9196;49.194;12.526;2023-09-30T13:49:43;5.30;;;3.40;;
18140;SDS011;9196;49.194;12.526;2023-09-30T13:52:10;3.47;;;3.07;;
18140;SDS011;9196;49.194;12.526;2023-09-30T13:54:37;8.23;;;3.10;;
18140;SDS011;9196;49.194;12.526;2023-09-30T13:57:04;4.33;;;2.80;;
18140;SDS011;9196;49.194;12.526;2023-09-30T13:59:33;4.20;;;2.47;;
18140;SDS011;9196;49.194;12.526;2023-09-30T14:02:00;7.70;;;3.20;;
18140;SDS011;9196;49.194;12.526;2023-09-30T14:04:28;4.33;;;2.93;;
18140;SDS011;9196;49.194;12.526;2023-09-30T14:06:58;6.83;;;3.83;;
18140;SDS011;9196;49.194;12.526;2023-09-30T14:09:27;6.77;;;3.47;;
18140;SDS011;9196;49.194;12.526;2023-09-30T14:11:54;5.43;;;3.20;;
18140;SDS011;9196;49.194;12.526;2023-09-30T14:14:26;5.47;;;3.57;;
18140;SDS011;9196;49.194;12.526;2023-09-30T14:16:52;12.03;;;2.87;;
18140;SDS011;9196;49.194;12.526;2023-09-30T14:19:19;3.93;;;2.40;;
18140;SDS011;9196;49.194;12.526;2023-09-30T14:21:49;6.17;;;3.43;;
18140;SDS011;9196;49.194;12.526;2023-09-30T14:24:18;5.70;;;2.73;;
18140;SDS011;9196;49.194;12.526;2023-09-30T14:26:45;2.97;;;2.33;;
18140;SDS011;9196;49.194;12.526;2023-09-30T14:29:11;3.53;;;2.37;;
18140;SDS011;9196;49.194;12.526;2023-09-30T14:31:38;4.03;;;2.20;;
18140;SDS011;9196;49.194;12.526;2023-09-30T14:34:07;4.53;;;2.37;;
18140;SDS011;9196;49.194;12.526;2023-09-30T14:36:37;4.93;;;2.83;;
18140;SDS011;9196;49.194;12.526;2023-09-30T14:39:04;5.57;;;3.10;;
18140;SDS011;9196;49.194;12.526;2023-09-30T14:41:32;5.50;;;3.07;;
18140;SDS011;9196;49.194;12.526;2023-09-30T14:44:00;5.33;;;3.00;;
18140;SDS011;9196;49.194;12.526;2023-09-30T14:46:28;5.60;;;2.80;;
18140;SDS011;9196;49.194;12.526;2023-09-30T14:48:55;3.63;;;2.87;;
18140;SDS011;9196;49.194;12.526;2023-09-30T14:51:22;3.67;;;2.93;;
18140;SDS011;9196;49.194;12.526;2023-09-30T14:53:49;3.13;;;2.93;;
18140;SDS011;9196;49.194;12.526;2023-09-30T14:56:16;12.03;;;3.37;;
18140;SDS011;9196;49.194;12.526;2023-09-30T14:58:45;4.70;;;2.97;;
18140;SDS011;9196;49.194;12.526;2023-09-30T15:01:12;4.70;;;3.20;;
18140;SDS011;9196;49.194;12.526;2023-09-30T15:03:38;4.90;;;3.53;;
18140;SDS011;9196;49.194;12.526;2023-09-30T15:06:06;6.43;;;2.83;;
18140;SDS011;9196;49.194;12.526;2023-09-30T15:08:34;4.10;;;2.97;;
18140;SDS011;9196;49.194;12.526;2023-09-30T15:11:02;7.77;;;2.67;;
18140;SDS011;9196;49.194;12.526;2023-09-30T15:13:29;5.50;;;3.60;;
18140;SDS011;9196;49.194;12.526;2023-09-30T15:15:57;6.00;;;3.30;;
18140;SDS011;9196;49.194;12.526;2023-09-30T15:18:24;5.30;;;3.30;;
18140;SDS011;9196;49.194;12.526;2023-09-30T15:20:51;3.07;;;2.53;;
18140;SDS011;9196;49.194;12.526;2023-09-30T15:23:18;2.97;;;2.63;;
18140;SDS011;9196;49.194;12.526;2023-09-30T15:25:45;3.40;;;3.07;;
18140;SDS011;9196;49.194;12.526;2023-09-30T15:28:12;9.23;;;5.20;;